sensor_id;sensor_type;location;lat;lon;timestamp;temperature;humidity
21602;DHT22;10963;50.934;4.668;2022-12-20T00:01:30;11.90;99.90
21602;DHT22;10963;50.934;4.668;2022-12-20T00:03:58;11.80;99.90
21602;DHT22;10963;50.934;4.668;2022-12-20T00:06:27;11.80;99.90
21602;DHT22;10963;50.934;4.668;2022-12-20T00:08:59;11.90;99.90
21602;DHT22;10963;50.934;4.668;2022-12-20T00:11:27;12.00;99.90
21602;DHT22;10963;50.934;4.668;2022-12-20T00:13:54;11.90;99.90
21602;DHT22;10963;50.934;4.668;2022-12-20T00:16:22;12.10;99.90
21602;DHT22;10963;50.934;4.668;2022-12-20T00:18:53;12.10;99.90
21602;DHT22;10963;50.934;4.668;2022-12-20T00:21:19;12.00;99.90
21602;DHT22;10963;50.934;4.668;2022-12-20T00:23:45;12.00;99.90
21602;DHT22;10963;50.934;4.668;2022-12-20T00:26:18;11.90;99.90
21602;DHT22;10963;50.934;4.668;2022-12-20T00:28:47;11.90;99.90
21602;DHT22;10963;50.934;4.668;2022-12-20T00:31:19;11.90;99.90
21602;DHT22;10963;50.934;4.668;2022-12-20T00:33:47;12.00;99.90
21602;DHT22;10963;50.934;4.668;2022-12-20T00:36:14;12.00;99.90
21602;DHT22;10963;50.934;4.668;2022-12-20T00:38:42;12.10;99.90
21602;DHT22;10963;50.934;4.668;2022-12-20T00:41:12;12.10;99.90
21602;DHT22;10963;50.934;4.668;2022-12-20T00:43:39;12.00;99.90
21602;DHT22;10963;50.934;4.668;2022-12-20T00:46:06;11.90;99.90
21602;DHT22;10963;50.934;4.668;2022-12-20T00:48:33;11.90;99.90
21602;DHT22;10963;50.934;4.668;2022-12-20T00:51:01;11.70;99.90
21602;DHT22;10963;50.934;4.668;2022-12-20T00:53:30;11.90;99.90
21602;DHT22;10963;50.934;4.668;2022-12-20T00:55:58;11.90;99.90
21602;DHT22;10963;50.934;4.668;2022-12-20T00:58:27;11.90;99.90
21602;DHT22;10963;50.934;4.668;2022-12-20T01:00:53;11.90;99.90
21602;DHT22;10963;50.934;4.668;2022-12-20T01:03:21;12.00;99.90
21602;DHT22;10963;50.934;4.668;2022-12-20T01:08:20;12.10;99.90
21602;DHT22;10963;50.934;4.668;2022-12-20T01:11:18;12.00;99.90
21602;DHT22;10963;50.934;4.668;2022-12-20T01:13:46;11.90;99.90
21602;DHT22;10963;50.934;4.668;2022-12-20T01:16:18;11.90;99.90
21602;DHT22;10963;50.934;4.668;2022-12-20T01:18:50;12.00;99.90
21602;DHT22;10963;50.934;4.668;2022-12-20T01:21:17;12.00;99.90
21602;DHT22;10963;50.934;4.668;2022-12-20T01:23:48;11.90;99.90
21602;DHT22;10963;50.934;4.668;2022-12-20T01:26:19;11.80;99.90
21602;DHT22;10963;50.934;4.668;2022-12-20T01:28:48;11.90;99.90
21602;DHT22;10963;50.934;4.668;2022-12-20T01:31:18;11.90;99.90
21602;DHT22;10963;50.934;4.668;2022-12-20T01:33:45;11.90;99.90
21602;DHT22;10963;50.934;4.668;2022-12-20T01:36:14;12.00;99.90
21602;DHT22;10963;50.934;4.668;2022-12-20T01:38:46;11.90;99.90
21602;DHT22;10963;50.934;4.668;2022-12-20T01:41:18;12.20;99.90
21602;DHT22;10963;50.934;4.668;2022-12-20T01:46:19;12.10;99.90
21602;DHT22;10963;50.934;4.668;2022-12-20T01:48:59;12.10;99.90
21602;DHT22;10963;50.934;4.668;2022-12-20T01:51:28;12.10;99.90
21602;DHT22;10963;50.934;4.668;2022-12-20T01:54:05;12.10;99.90
21602;DHT22;10963;50.934;4.668;2022-12-20T01:56:32;12.10;99.90
21602;DHT22;10963;50.934;4.668;2022-12-20T01:58:58;12.10;99.90
21602;DHT22;10963;50.934;4.668;2022-12-20T02:01:25;12.10;99.90
21602;DHT22;10963;50.934;4.668;2022-12-20T02:03:56;12.10;99.90
21602;DHT22;10963;50.934;4.668;2022-12-20T02:06:24;11.90;99.90
21602;DHT22;10963;50.934;4.668;2022-12-20T02:08:52;11.80;99.90
21602;DHT22;10963;50.934;4.668;2022-12-20T02:14:48;11.60;99.90
21602;DHT22;10963;50.934;4.668;2022-12-20T02:31:26;11.60;99.90
21602;DHT22;10963;50.934;4.668;2022-12-20T02:33:54;11.60;99.90
21602;DHT22;10963;50.934;4.668;2022-12-20T02:36:26;11.50;99.90
21602;DHT22;10963;50.934;4.668;2022-12-20T02:38:52;11.60;99.90
21602;DHT22;10963;50.934;4.668;2022-12-20T02:41:34;11.70;99.90
21602;DHT22;10963;50.934;4.668;2022-12-20T02:44:11;11.80;99.90
21602;DHT22;10963;50.934;4.668;2022-12-20T02:47:01;11.80;99.90
21602;DHT22;10963;50.934;4.668;2022-12-20T02:49:33;11.70;99.90
21602;DHT22;10963;50.934;4.668;2022-12-20T02:52:07;11.70;99.90
21602;DHT22;10963;50.934;4.668;2022-12-20T02:54:36;11.90;99.90
21602;DHT22;10963;50.934;4.668;2022-12-20T02:57:23;11.80;99.90
21602;DHT22;10963;50.934;4.668;2022-12-20T03:00:16;11.80;99.90
21602;DHT22;10963;50.934;4.668;2022-12-20T03:02:46;11.80;99.90
21602;DHT22;10963;50.934;4.668;2022-12-20T03:05:33;11.80;99.90
21602;DHT22;10963;50.934;4.668;2022-12-20T03:08:02;11.80;99.90
21602;DHT22;10963;50.934;4.668;2022-12-20T03:10:27;11.70;99.90
21602;DHT22;10963;50.934;4.668;2022-12-20T03:12:53;11.70;99.90
21602;DHT22;10963;50.934;4.668;2022-12-20T03:15:19;11.70;99.90
21602;DHT22;10963;50.934;4.668;2022-12-20T03:17:45;11.60;99.90
21602;DHT22;10963;50.934;4.668;2022-12-20T03:20:11;11.70;99.90
21602;DHT22;10963;50.934;4.668;2022-12-20T03:22:37;11.80;99.90
21602;DHT22;10963;50.934;4.668;2022-12-20T03:25:06;11.90;99.90
21602;DHT22;10963;50.934;4.668;2022-12-20T03:27:32;11.90;99.90
21602;DHT22;10963;50.934;4.668;2022-12-20T03:29:57;11.80;99.90
21602;DHT22;10963;50.934;4.668;2022-12-20T03:32:25;11.90;99.90
21602;DHT22;10963;50.934;4.668;2022-12-20T03:34:55;11.80;99.90
21602;DHT22;10963;50.934;4.668;2022-12-20T03:37:21;11.90;99.90
21602;DHT22;10963;50.934;4.668;2022-12-20T03:39:49;11.90;99.90
21602;DHT22;10963;50.934;4.668;2022-12-20T03:42:14;11.70;99.90
21602;DHT22;10963;50.934;4.668;2022-12-20T03:44:43;11.80;99.90
21602;DHT22;10963;50.934;4.668;2022-12-20T03:47:13;11.90;99.90
21602;DHT22;10963;50.934;4.668;2022-12-20T03:49:39;11.90;99.90
21602;DHT22;10963;50.934;4.668;2022-12-20T03:52:05;12.00;99.90
21602;DHT22;10963;50.934;4.668;2022-12-20T03:54:30;12.00;99.90
21602;DHT22;10963;50.934;4.668;2022-12-20T03:56:56;11.90;99.90
21602;DHT22;10963;50.934;4.668;2022-12-20T03:59:25;11.70;99.90
21602;DHT22;10963;50.934;4.668;2022-12-20T04:01:53;11.60;99.90
21602;DHT22;10963;50.934;4.668;2022-12-20T04:04:23;11.40;99.90
21602;DHT22;10963;50.934;4.668;2022-12-20T04:06:48;11.40;99.90
21602;DHT22;10963;50.934;4.668;2022-12-20T04:09:14;11.40;99.90
21602;DHT22;10963;50.934;4.668;2022-12-20T04:11:40;11.50;99.90
21602;DHT22;10963;50.934;4.668;2022-12-20T04:14:06;11.50;99.90
21602;DHT22;10963;50.934;4.668;2022-12-20T04:16:32;11.60;99.90
21602;DHT22;10963;50.934;4.668;2022-12-20T04:19:00;11.60;99.90
21602;DHT22;10963;50.934;4.668;2022-12-20T04:21:31;11.60;99.90
21602;DHT22;10963;50.934;4.668;2022-12-20T04:24:03;11.50;99.90
21602;DHT22;10963;50.934;4.668;2022-12-20T04:26:32;11.50;99.90
21602;DHT22;10963;50.934;4.668;2022-12-20T04:29:00;11.50;99.90
21602;DHT22;10963;50.934;4.668;2022-12-20T04:31:28;11.50;99.90
21602;DHT22;10963;50.934;4.668;2022-12-20T04:33:54;11.40;99.90
21602;DHT22;10963;50.934;4.668;2022-12-20T04:36:22;11.50;99.90
21602;DHT22;10963;50.934;4.668;2022-12-20T04:38:48;11.50;99.90
21602;DHT22;10963;50.934;4.668;2022-12-20T04:41:16;11.60;99.90
21602;DHT22;10963;50.934;4.668;2022-12-20T04:43:54;11.70;99.90
21602;DHT22;10963;50.934;4.668;2022-12-20T04:46:21;11.80;99.90
21602;DHT22;10963;50.934;4.668;2022-12-20T04:48:47;11.90;99.90
21602;DHT22;10963;50.934;4.668;2022-12-20T04:51:13;11.90;99.90
21602;DHT22;10963;50.934;4.668;2022-12-20T04:53:43;11.90;99.90
21602;DHT22;10963;50.934;4.668;2022-12-20T04:56:19;12.00;99.90
21602;DHT22;10963;50.934;4.668;2022-12-20T04:58:47;12.00;99.90
21602;DHT22;10963;50.934;4.668;2022-12-20T05:01:18;12.00;99.90
21602;DHT22;10963;50.934;4.668;2022-12-20T05:03:44;12.00;99.90
21602;DHT22;10963;50.934;4.668;2022-12-20T05:06:11;12.20;99.90
21602;DHT22;10963;50.934;4.668;2022-12-20T05:08:37;12.20;99.90
21602;DHT22;10963;50.934;4.668;2022-12-20T05:11:03;12.20;99.90
21602;DHT22;10963;50.934;4.668;2022-12-20T05:13:29;12.10;99.90
21602;DHT22;10963;50.934;4.668;2022-12-20T05:15:56;12.00;99.90
21602;DHT22;10963;50.934;4.668;2022-12-20T05:18:25;11.90;99.90
21602;DHT22;10963;50.934;4.668;2022-12-20T05:20:54;12.10;99.90
21602;DHT22;10963;50.934;4.668;2022-12-20T05:23:40;12.10;99.90
21602;DHT22;10963;50.934;4.668;2022-12-20T05:26:25;12.00;99.90
21602;DHT22;10963;50.934;4.668;2022-12-20T05:28:53;12.00;99.90
21602;DHT22;10963;50.934;4.668;2022-12-20T05:31:23;12.00;99.90
21602;DHT22;10963;50.934;4.668;2022-12-20T05:33:49;11.90;99.90
21602;DHT22;10963;50.934;4.668;2022-12-20T05:39:37;12.00;99.90
21602;DHT22;10963;50.934;4.668;2022-12-20T05:42:07;12.00;99.90
21602;DHT22;10963;50.934;4.668;2022-12-20T05:44:35;11.90;99.90
21602;DHT22;10963;50.934;4.668;2022-12-20T05:47:03;11.90;99.90
21602;DHT22;10963;50.934;4.668;2022-12-20T05:49:29;12.00;99.90
21602;DHT22;10963;50.934;4.668;2022-12-20T05:51:54;11.90;99.90
21602;DHT22;10963;50.934;4.668;2022-12-20T05:54:20;12.00;99.90
21602;DHT22;10963;50.934;4.668;2022-12-20T05:56:48;11.90;99.90
21602;DHT22;10963;50.934;4.668;2022-12-20T05:59:14;12.00;99.90
21602;DHT22;10963;50.934;4.668;2022-12-20T06:01:39;11.80;99.90
21602;DHT22;10963;50.934;4.668;2022-12-20T06:04:07;11.70;99.90
21602;DHT22;10963;50.934;4.668;2022-12-20T06:06:38;11.80;99.90
21602;DHT22;10963;50.934;4.668;2022-12-20T06:09:03;11.80;99.90
21602;DHT22;10963;50.934;4.668;2022-12-20T06:11:29;11.80;99.90
21602;DHT22;10963;50.934;4.668;2022-12-20T06:13:58;11.90;99.90
21602;DHT22;10963;50.934;4.668;2022-12-20T06:16:26;11.90;99.90
21602;DHT22;10963;50.934;4.668;2022-12-20T06:18:54;11.80;99.90
21602;DHT22;10963;50.934;4.668;2022-12-20T06:21:20;11.70;99.90
21602;DHT22;10963;50.934;4.668;2022-12-20T06:23:48;11.80;99.90
21602;DHT22;10963;50.934;4.668;2022-12-20T06:26:16;11.80;99.90
21602;DHT22;10963;50.934;4.668;2022-12-20T06:28:44;11.70;99.90
21602;DHT22;10963;50.934;4.668;2022-12-20T06:31:10;11.80;99.90
21602;DHT22;10963;50.934;4.668;2022-12-20T06:33:39;11.90;99.90
21602;DHT22;10963;50.934;4.668;2022-12-20T06:36:07;11.90;99.90
21602;DHT22;10963;50.934;4.668;2022-12-20T06:38:35;11.80;99.90
21602;DHT22;10963;50.934;4.668;2022-12-20T06:41:01;11.90;99.90
21602;DHT22;10963;50.934;4.668;2022-12-20T06:43:27;11.90;99.90
21602;DHT22;10963;50.934;4.668;2022-12-20T06:45:55;11.90;99.90
21602;DHT22;10963;50.934;4.668;2022-12-20T06:48:23;11.90;99.90
21602;DHT22;10963;50.934;4.668;2022-12-20T06:50:51;11.90;99.90
21602;DHT22;10963;50.934;4.668;2022-12-20T06:53:17;12.10;99.90
21602;DHT22;10963;50.934;4.668;2022-12-20T06:55:43;12.10;99.90
21602;DHT22;10963;50.934;4.668;2022-12-20T06:58:17;12.10;99.90
21602;DHT22;10963;50.934;4.668;2022-12-20T07:00:42;12.10;99.90
21602;DHT22;10963;50.934;4.668;2022-12-20T07:03:10;12.10;99.90
21602;DHT22;10963;50.934;4.668;2022-12-20T07:05:39;12.20;99.90
21602;DHT22;10963;50.934;4.668;2022-12-20T07:08:04;12.10;99.90
21602;DHT22;10963;50.934;4.668;2022-12-20T07:10:33;12.10;99.90
21602;DHT22;10963;50.934;4.668;2022-12-20T07:12:59;12.10;99.90
21602;DHT22;10963;50.934;4.668;2022-12-20T07:15:30;11.90;99.90
21602;DHT22;10963;50.934;4.668;2022-12-20T07:17:55;11.80;99.90
21602;DHT22;10963;50.934;4.668;2022-12-20T07:20:21;11.80;99.90
21602;DHT22;10963;50.934;4.668;2022-12-20T07:22:47;11.70;99.90
21602;DHT22;10963;50.934;4.668;2022-12-20T07:25:13;11.80;99.90
21602;DHT22;10963;50.934;4.668;2022-12-20T07:27:39;11.80;99.90
21602;DHT22;10963;50.934;4.668;2022-12-20T07:30:05;11.80;99.90
21602;DHT22;10963;50.934;4.668;2022-12-20T07:32:31;11.70;99.90
21602;DHT22;10963;50.934;4.668;2022-12-20T07:34:57;11.70;99.90
21602;DHT22;10963;50.934;4.668;2022-12-20T07:37:25;11.80;99.90
21602;DHT22;10963;50.934;4.668;2022-12-20T07:39:52;11.70;99.90
21602;DHT22;10963;50.934;4.668;2022-12-20T07:42:18;11.70;99.90
21602;DHT22;10963;50.934;4.668;2022-12-20T07:44:46;11.70;99.90
21602;DHT22;10963;50.934;4.668;2022-12-20T07:47:14;11.60;99.90
21602;DHT22;10963;50.934;4.668;2022-12-20T07:49:40;11.40;99.90
21602;DHT22;10963;50.934;4.668;2022-12-20T07:52:09;11.40;99.90
21602;DHT22;10963;50.934;4.668;2022-12-20T07:54:42;11.20;99.90
21602;DHT22;10963;50.934;4.668;2022-12-20T07:57:18;11.20;99.90
21602;DHT22;10963;50.934;4.668;2022-12-20T07:59:48;11.20;99.90
21602;DHT22;10963;50.934;4.668;2022-12-20T08:02:19;11.20;99.90
21602;DHT22;10963;50.934;4.668;2022-12-20T08:04:46;11.10;99.90
21602;DHT22;10963;50.934;4.668;2022-12-20T08:07:14;11.10;99.90
21602;DHT22;10963;50.934;4.668;2022-12-20T08:09:43;11.10;99.90
21602;DHT22;10963;50.934;4.668;2022-12-20T08:12:11;11.20;99.90
21602;DHT22;10963;50.934;4.668;2022-12-20T08:14:38;11.20;99.90
21602;DHT22;10963;50.934;4.668;2022-12-20T08:17:07;11.20;99.90
21602;DHT22;10963;50.934;4.668;2022-12-20T08:19:36;11.30;99.90
21602;DHT22;10963;50.934;4.668;2022-12-20T08:22:05;11.40;99.90
21602;DHT22;10963;50.934;4.668;2022-12-20T08:24:33;11.40;99.90
21602;DHT22;10963;50.934;4.668;2022-12-20T08:27:01;11.40;99.90
21602;DHT22;10963;50.934;4.668;2022-12-20T08:29:27;11.30;99.90
21602;DHT22;10963;50.934;4.668;2022-12-20T08:31:53;11.40;99.90
21602;DHT22;10963;50.934;4.668;2022-12-20T08:34:19;11.40;99.90
21602;DHT22;10963;50.934;4.668;2022-12-20T08:36:47;11.40;99.90
21602;DHT22;10963;50.934;4.668;2022-12-20T08:39:12;11.40;99.90
21602;DHT22;10963;50.934;4.668;2022-12-20T08:41:41;11.40;99.90
21602;DHT22;10963;50.934;4.668;2022-12-20T08:44:09;11.50;99.90
21602;DHT22;10963;50.934;4.668;2022-12-20T08:46:35;11.60;99.90
21602;DHT22;10963;50.934;4.668;2022-12-20T08:49:06;11.60;99.90
21602;DHT22;10963;50.934;4.668;2022-12-20T08:51:34;11.40;99.90
21602;DHT22;10963;50.934;4.668;2022-12-20T08:54:00;11.40;99.90
21602;DHT22;10963;50.934;4.668;2022-12-20T08:56:27;11.40;99.90
21602;DHT22;10963;50.934;4.668;2022-12-20T08:58:53;11.50;99.90
21602;DHT22;10963;50.934;4.668;2022-12-20T09:01:22;11.40;99.90
21602;DHT22;10963;50.934;4.668;2022-12-20T09:03:53;11.40;99.90
21602;DHT22;10963;50.934;4.668;2022-12-20T09:06:22;11.40;99.90
21602;DHT22;10963;50.934;4.668;2022-12-20T09:08:49;11.50;99.90
21602;DHT22;10963;50.934;4.668;2022-12-20T09:11:23;11.50;99.90
21602;DHT22;10963;50.934;4.668;2022-12-20T09:13:52;11.70;99.90
21602;DHT22;10963;50.934;4.668;2022-12-20T09:16:23;11.90;99.90
21602;DHT22;10963;50.934;4.668;2022-12-20T09:18:50;11.90;99.90
21602;DHT22;10963;50.934;4.668;2022-12-20T09:21:16;11.80;99.90
21602;DHT22;10963;50.934;4.668;2022-12-20T09:27:04;11.70;99.90
21602;DHT22;10963;50.934;4.668;2022-12-20T09:29:29;11.70;99.90
21602;DHT22;10963;50.934;4.668;2022-12-20T09:31:55;11.70;99.90
21602;DHT22;10963;50.934;4.668;2022-12-20T09:34:21;11.70;99.90
21602;DHT22;10963;50.934;4.668;2022-12-20T09:36:49;11.80;99.90
21602;DHT22;10963;50.934;4.668;2022-12-20T09:39:14;11.80;99.90
21602;DHT22;10963;50.934;4.668;2022-12-20T09:41:43;11.90;99.90
21602;DHT22;10963;50.934;4.668;2022-12-20T09:46:46;12.00;99.90
21602;DHT22;10963;50.934;4.668;2022-12-20T09:49:16;12.00;99.90
21602;DHT22;10963;50.934;4.668;2022-12-20T09:54:41;12.00;99.90
21602;DHT22;10963;50.934;4.668;2022-12-20T09:59:43;11.90;99.90
21602;DHT22;10963;50.934;4.668;2022-12-20T10:02:14;11.90;99.90
21602;DHT22;10963;50.934;4.668;2022-12-20T10:04:44;11.80;99.90
21602;DHT22;10963;50.934;4.668;2022-12-20T10:12:48;11.50;99.90
21602;DHT22;10963;50.934;4.668;2022-12-20T10:15:21;11.50;99.90
21602;DHT22;10963;50.934;4.668;2022-12-20T10:17:53;11.40;99.90
21602;DHT22;10963;50.934;4.668;2022-12-20T10:25:42;11.40;99.90
21602;DHT22;10963;50.934;4.668;2022-12-20T10:28:14;11.50;99.90
21602;DHT22;10963;50.934;4.668;2022-12-20T10:30:43;11.50;99.90
21602;DHT22;10963;50.934;4.668;2022-12-20T10:33:20;11.50;99.90
21602;DHT22;10963;50.934;4.668;2022-12-20T10:35:49;11.50;99.90
21602;DHT22;10963;50.934;4.668;2022-12-20T10:38:16;11.40;99.90
21602;DHT22;10963;50.934;4.668;2022-12-20T10:43:23;11.40;99.90
21602;DHT22;10963;50.934;4.668;2022-12-20T10:46:03;11.50;99.90
21602;DHT22;10963;50.934;4.668;2022-12-20T10:48:37;11.40;99.90
21602;DHT22;10963;50.934;4.668;2022-12-20T10:51:20;11.30;99.90
21602;DHT22;10963;50.934;4.668;2022-12-20T10:56:22;11.40;99.90
21602;DHT22;10963;50.934;4.668;2022-12-20T11:01:35;11.60;99.90
21602;DHT22;10963;50.934;4.668;2022-12-20T11:04:06;11.70;99.90
21602;DHT22;10963;50.934;4.668;2022-12-20T11:09:35;11.50;99.90
21602;DHT22;10963;50.934;4.668;2022-12-20T11:12:11;11.40;99.90
21602;DHT22;10963;50.934;4.668;2022-12-20T11:14:43;11.40;99.90
21602;DHT22;10963;50.934;4.668;2022-12-20T11:34:02;11.20;99.90
21602;DHT22;10963;50.934;4.668;2022-12-20T11:45:24;11.40;99.90
21602;DHT22;10963;50.934;4.668;2022-12-20T11:53:53;11.30;99.90
21602;DHT22;10963;50.934;4.668;2022-12-20T11:56:20;11.40;99.90
21602;DHT22;10963;50.934;4.668;2022-12-20T11:58:56;11.40;99.90
21602;DHT22;10963;50.934;4.668;2022-12-20T12:01:28;11.40;99.90
21602;DHT22;10963;50.934;4.668;2022-12-20T12:04:15;11.40;99.90
21602;DHT22;10963;50.934;4.668;2022-12-20T12:07:05;11.40;99.90
21602;DHT22;10963;50.934;4.668;2022-12-20T12:09:55;11.30;99.90
21602;DHT22;10963;50.934;4.668;2022-12-20T12:12:42;11.20;99.90
21602;DHT22;10963;50.934;4.668;2022-12-20T12:15:21;11.10;99.90
21602;DHT22;10963;50.934;4.668;2022-12-20T12:18:18;11.10;99.90
21602;DHT22;10963;50.934;4.668;2022-12-20T12:23:22;11.20;99.90
21602;DHT22;10963;50.934;4.668;2022-12-20T12:25:48;11.20;99.90
21602;DHT22;10963;50.934;4.668;2022-12-20T12:28:16;11.20;99.90
21602;DHT22;10963;50.934;4.668;2022-12-20T12:30:51;11.10;99.90
21602;DHT22;10963;50.934;4.668;2022-12-20T12:33:29;11.00;99.90
21602;DHT22;10963;50.934;4.668;2022-12-20T12:36:08;11.10;99.90
21602;DHT22;10963;50.934;4.668;2022-12-20T12:47:55;10.90;99.90
21602;DHT22;10963;50.934;4.668;2022-12-20T12:50:01;11.00;99.90
21602;DHT22;10963;50.934;4.668;2022-12-20T12:52:40;11.00;99.90
21602;DHT22;10963;50.934;4.668;2022-12-20T13:00:50;11.20;99.90
21602;DHT22;10963;50.934;4.668;2022-12-20T13:03:43;11.10;99.90
21602;DHT22;10963;50.934;4.668;2022-12-20T13:11:32;11.00;99.90
21602;DHT22;10963;50.934;4.668;2022-12-20T13:19:18;11.00;99.90
21602;DHT22;10963;50.934;4.668;2022-12-20T13:43:50;10.90;99.90
21602;DHT22;10963;50.934;4.668;2022-12-20T13:46:37;10.80;99.90
21602;DHT22;10963;50.934;4.668;2022-12-20T13:49:10;10.80;99.90
21602;DHT22;10963;50.934;4.668;2022-12-20T13:51:37;10.80;99.90
21602;DHT22;10963;50.934;4.668;2022-12-20T13:54:13;10.70;99.90
21602;DHT22;10963;50.934;4.668;2022-12-20T13:56:49;10.70;99.90
21602;DHT22;10963;50.934;4.668;2022-12-20T13:59:21;10.80;99.90
21602;DHT22;10963;50.934;4.668;2022-12-20T14:01:51;10.80;99.90
21602;DHT22;10963;50.934;4.668;2022-12-20T14:04:21;10.70;99.90
21602;DHT22;10963;50.934;4.668;2022-12-20T14:06:58;10.70;99.90
21602;DHT22;10963;50.934;4.668;2022-12-20T14:09:33;10.80;99.90
21602;DHT22;10963;50.934;4.668;2022-12-20T14:12:09;10.80;99.90
21602;DHT22;10963;50.934;4.668;2022-12-20T14:14:46;10.80;99.90
21602;DHT22;10963;50.934;4.668;2022-12-20T14:17:32;10.90;99.90
21602;DHT22;10963;50.934;4.668;2022-12-20T14:20:22;11.00;99.90
21602;DHT22;10963;50.934;4.668;2022-12-20T14:26:00;11.00;99.90
21602;DHT22;10963;50.934;4.668;2022-12-20T14:28:30;11.00;99.90
21602;DHT22;10963;50.934;4.668;2022-12-20T14:31:02;11.00;99.90
21602;DHT22;10963;50.934;4.668;2022-12-20T14:33:30;11.00;99.90
21602;DHT22;10963;50.934;4.668;2022-12-20T14:36:16;11.00;99.90
21602;DHT22;10963;50.934;4.668;2022-12-20T14:38:45;11.00;99.90
21602;DHT22;10963;50.934;4.668;2022-12-20T14:41:32;11.00;99.90
21602;DHT22;10963;50.934;4.668;2022-12-20T14:44:20;10.90;99.90
21602;DHT22;10963;50.934;4.668;2022-12-20T14:46:59;10.90;99.90
21602;DHT22;10963;50.934;4.668;2022-12-20T14:52:16;10.90;99.90
21602;DHT22;10963;50.934;4.668;2022-12-20T14:54:48;10.90;99.90
21602;DHT22;10963;50.934;4.668;2022-12-20T15:10:57;10.90;99.90
21602;DHT22;10963;50.934;4.668;2022-12-20T15:13:30;10.80;99.90
21602;DHT22;10963;50.934;4.668;2022-12-20T15:16:02;10.90;99.90
21602;DHT22;10963;50.934;4.668;2022-12-20T15:18:29;10.80;99.90
21602;DHT22;10963;50.934;4.668;2022-12-20T15:21:14;10.70;99.90
21602;DHT22;10963;50.934;4.668;2022-12-20T15:23:51;10.80;99.90
21602;DHT22;10963;50.934;4.668;2022-12-20T15:26:20;10.80;99.90
21602;DHT22;10963;50.934;4.668;2022-12-20T15:28:46;10.70;99.90
21602;DHT22;10963;50.934;4.668;2022-12-20T15:31:22;10.70;99.90
21602;DHT22;10963;50.934;4.668;2022-12-20T15:33:51;10.70;99.90
21602;DHT22;10963;50.934;4.668;2022-12-20T15:36:26;10.70;99.90
21602;DHT22;10963;50.934;4.668;2022-12-20T15:38:56;10.70;99.90
21602;DHT22;10963;50.934;4.668;2022-12-20T15:44:20;10.70;99.90
21602;DHT22;10963;50.934;4.668;2022-12-20T15:46:52;10.70;99.90
21602;DHT22;10963;50.934;4.668;2022-12-20T15:49:23;10.80;99.90
21602;DHT22;10963;50.934;4.668;2022-12-20T15:51:55;10.80;99.90
21602;DHT22;10963;50.934;4.668;2022-12-20T15:54:24;10.80;99.90
21602;DHT22;10963;50.934;4.668;2022-12-20T15:56:55;10.80;99.90
21602;DHT22;10963;50.934;4.668;2022-12-20T15:59:21;10.80;99.90
21602;DHT22;10963;50.934;4.668;2022-12-20T16:01:50;10.70;99.90
21602;DHT22;10963;50.934;4.668;2022-12-20T16:04:18;10.60;99.90
21602;DHT22;10963;50.934;4.668;2022-12-20T16:06:46;10.60;99.90
21602;DHT22;10963;50.934;4.668;2022-12-20T16:09:13;10.70;99.90
21602;DHT22;10963;50.934;4.668;2022-12-20T16:11:39;10.70;99.90
21602;DHT22;10963;50.934;4.668;2022-12-20T16:14:08;10.80;99.90
21602;DHT22;10963;50.934;4.668;2022-12-20T16:16:38;10.90;99.90
21602;DHT22;10963;50.934;4.668;2022-12-20T16:19:03;10.80;99.90
21602;DHT22;10963;50.934;4.668;2022-12-20T16:21:35;10.70;99.90
21602;DHT22;10963;50.934;4.668;2022-12-20T16:24:01;10.80;99.90
21602;DHT22;10963;50.934;4.668;2022-12-20T16:26:27;10.90;99.90
21602;DHT22;10963;50.934;4.668;2022-12-20T16:28:54;11.00;99.90
21602;DHT22;10963;50.934;4.668;2022-12-20T16:31:32;11.00;99.90
21602;DHT22;10963;50.934;4.668;2022-12-20T16:34:03;10.90;99.90
21602;DHT22;10963;50.934;4.668;2022-12-20T16:36:31;11.00;99.90
21602;DHT22;10963;50.934;4.668;2022-12-20T16:38:58;11.10;99.90
21602;DHT22;10963;50.934;4.668;2022-12-20T16:41:28;11.00;99.90
21602;DHT22;10963;50.934;4.668;2022-12-20T16:43:56;11.10;99.90
21602;DHT22;10963;50.934;4.668;2022-12-20T16:46:24;11.10;99.90
21602;DHT22;10963;50.934;4.668;2022-12-20T16:48:56;11.00;99.90
21602;DHT22;10963;50.934;4.668;2022-12-20T16:51:32;11.10;99.90
21602;DHT22;10963;50.934;4.668;2022-12-20T16:54:11;11.00;99.90
21602;DHT22;10963;50.934;4.668;2022-12-20T16:56:41;11.00;99.90
21602;DHT22;10963;50.934;4.668;2022-12-20T16:59:07;10.90;99.90
21602;DHT22;10963;50.934;4.668;2022-12-20T17:01:39;11.00;99.90
21602;DHT22;10963;50.934;4.668;2022-12-20T17:04:13;11.10;99.90
21602;DHT22;10963;50.934;4.668;2022-12-20T17:06:41;11.10;99.90
21602;DHT22;10963;50.934;4.668;2022-12-20T17:09:10;11.00;99.90
21602;DHT22;10963;50.934;4.668;2022-12-20T17:11:38;10.80;99.90
21602;DHT22;10963;50.934;4.668;2022-12-20T17:14:06;10.80;99.90
21602;DHT22;10963;50.934;4.668;2022-12-20T17:16:34;10.80;99.90
21602;DHT22;10963;50.934;4.668;2022-12-20T17:19:00;10.90;99.90
21602;DHT22;10963;50.934;4.668;2022-12-20T17:21:42;10.90;99.90
21602;DHT22;10963;50.934;4.668;2022-12-20T17:24:20;10.80;99.90
21602;DHT22;10963;50.934;4.668;2022-12-20T17:26:49;10.80;99.90
21602;DHT22;10963;50.934;4.668;2022-12-20T17:29:15;10.90;99.90
21602;DHT22;10963;50.934;4.668;2022-12-20T17:31:43;10.90;99.90
21602;DHT22;10963;50.934;4.668;2022-12-20T17:34:18;10.90;99.90
21602;DHT22;10963;50.934;4.668;2022-12-20T17:36:51;10.70;99.90
21602;DHT22;10963;50.934;4.668;2022-12-20T17:39:17;10.50;99.90
21602;DHT22;10963;50.934;4.668;2022-12-20T17:41:46;10.60;99.90
21602;DHT22;10963;50.934;4.668;2022-12-20T17:44:32;10.60;99.90
21602;DHT22;10963;50.934;4.668;2022-12-20T17:47:00;10.60;99.90
21602;DHT22;10963;50.934;4.668;2022-12-20T17:49:28;10.60;99.90
21602;DHT22;10963;50.934;4.668;2022-12-20T17:51:54;10.60;99.90
21602;DHT22;10963;50.934;4.668;2022-12-20T17:54:24;10.70;99.90
21602;DHT22;10963;50.934;4.668;2022-12-20T17:56:51;10.70;99.90
21602;DHT22;10963;50.934;4.668;2022-12-20T17:59:18;10.70;99.90
21602;DHT22;10963;50.934;4.668;2022-12-20T18:01:45;10.80;99.90
21602;DHT22;10963;50.934;4.668;2022-12-20T18:04:14;10.90;99.90
21602;DHT22;10963;50.934;4.668;2022-12-20T18:06:42;10.70;99.90
21602;DHT22;10963;50.934;4.668;2022-12-20T18:09:19;10.60;99.90
21602;DHT22;10963;50.934;4.668;2022-12-20T18:11:47;10.50;99.90
21602;DHT22;10963;50.934;4.668;2022-12-20T18:14:18;10.70;99.90
21602;DHT22;10963;50.934;4.668;2022-12-20T18:16:43;10.70;99.90
21602;DHT22;10963;50.934;4.668;2022-12-20T18:19:15;10.70;99.90
21602;DHT22;10963;50.934;4.668;2022-12-20T18:21:41;10.70;99.90
21602;DHT22;10963;50.934;4.668;2022-12-20T18:24:10;10.70;99.90
21602;DHT22;10963;50.934;4.668;2022-12-20T18:26:36;10.70;99.90
21602;DHT22;10963;50.934;4.668;2022-12-20T18:29:01;10.60;99.90
21602;DHT22;10963;50.934;4.668;2022-12-20T18:31:34;10.70;99.90